Time;durP1;ratioP1;P1;durP2;ratioP2;P2;SDS_P1;SDS_P2;PMS_P1;PMS_P2;Temp;Humidity;BMP_temperature;BMP_pressure;BME280_temperature;BME280_humidity;BME280_pressure;Samples;Min_cycle;Max_cycle;Signal;HPM_P1;HPM_P2
2021/09/17 00:01:33;;;;;;;2.97;1.60;;;15.40;69.20;;;;;;4983745;28;20034;-79
2021/09/17 00:03:59;;;;;;;3.00;1.35;;;15.40;69.30;;;;;;4967274;28;20781;-80
2021/09/17 00:06:25;;;;;;;1.77;1.00;;;15.40;69.20;;;;;;4967293;28;20435;-78
2021/09/17 00:08:51;;;;;;;2.42;1.33;;;15.40;69.30;;;;;;4987190;28;20150;-79
2021/09/17 00:11:18;;;;;;;1.90;1.58;;;15.50;69.50;;;;;;4975508;28;20603;-78
2021/09/17 00:13:44;;;;;;;4.78;2.00;;;15.40;69.30;;;;;;4968653;28;20049;-79
2021/09/17 00:16:10;;;;;;;3.17;1.40;;;15.40;69.30;;;;;;4969137;28;20475;-78
2021/09/17 00:18:36;;;;;;;1.45;1.10;;;15.40;69.80;;;;;;4977911;28;20023;-78
2021/09/17 00:21:02;;;;;;;1.83;1.58;;;15.40;69.30;;;;;;4950885;28;20320;-78
2021/09/17 00:23:28;;;;;;;1.40;1.00;;;15.40;69.30;;;;;;4973908;28;20026;-78
2021/09/17 00:25:54;;;;;;;3.65;1.42;;;15.40;69.30;;;;;;4986299;28;20038;-78
2021/09/17 00:28:20;;;;;;;1.60;1.40;;;15.40;69.30;;;;;;4967138;28;20038;-80
2021/09/17 00:30:46;;;;;;;1.90;1.20;;;15.40;69.40;;;;;;4983481;28;20070;-79
2021/09/17 00:33:12;;;;;;;1.98;1.00;;;15.30;69.20;;;;;;4982896;28;20035;-79
2021/09/17 00:35:38;;;;;;;1.58;1.30;;;15.30;69.20;;;;;;4983122;28;20035;-80
2021/09/17 00:38:04;;;;;;;1.55;1.00;;;15.30;69.30;;;;;;4969395;28;20394;-78
2021/09/17 00:40:33;;;;;;;1.73;1.05;;;15.30;69.30;;;;;;4987658;28;20053;-80
2021/09/17 00:42:59;;;;;;;2.85;1.35;;;15.30;69.40;;;;;;4978803;28;20459;-80
2021/09/17 00:45:25;;;;;;;2.00;1.20;;;15.30;69.50;;;;;;4985533;28;20485;-78
2021/09/17 00:47:51;;;;;;;3.33;1.20;;;15.30;69.50;;;;;;4986060;28;20088;-80
2021/09/17 00:50:21;;;;;;;4.78;2.08;;;15.30;69.50;;;;;;4966791;28;20042;-80
2021/09/17 00:52:48;;;;;;;2.50;1.38;;;15.30;69.60;;;;;;4951441;28;20062;-81
2021/09/17 00:55:14;;;;;;;2.00;1.48;;;15.30;69.60;;;;;;4989022;28;20076;-77
2021/09/17 00:57:40;;;;;;;2.03;1.10;;;15.40;69.90;;;;;;4987125;28;20117;-79
2021/09/17 01:00:12;;;;;;;1.63;1.50;;;15.30;69.70;;;;;;4968699;28;20094;-78
2021/09/17 01:02:39;;;;;;;3.13;1.40;;;15.30;69.70;;;;;;4965939;28;20043;-80
2021/09/17 01:05:07;;;;;;;2.17;1.98;;;15.40;69.80;;;;;;4986884;28;20054;-78
2021/09/17 01:07:33;;;;;;;2.22;1.55;;;15.30;69.60;;;;;;4969411;28;20034;-79
2021/09/17 01:10:00;;;;;;;1.60;1.17;;;15.40;69.90;;;;;;4985528;28;20482;-78
2021/09/17 01:12:26;;;;;;;1.52;1.30;;;15.40;69.90;;;;;;4977166;28;20038;-78
2021/09/17 01:14:52;;;;;;;1.88;1.33;;;15.40;69.80;;;;;;5006875;28;20023;-78
2021/09/17 01:17:19;;;;;;;1.83;1.48;;;15.40;69.90;;;;;;4991364;28;20042;-78
2021/09/17 01:19:46;;;;;;;3.00;1.23;;;15.40;69.80;;;;;;4993825;28;20034;-79
2021/09/17 01:22:13;;;;;;;1.63;1.23;;;15.40;69.80;;;;;;4991528;28;20029;-78
2021/09/17 01:24:39;;;;;;;1.65;1.23;;;15.40;69.80;;;;;;4979982;28;20031;-79
2021/09/17 01:27:07;;;;;;;1.40;1.30;;;15.40;69.90;;;;;;4967289;28;20118;-77
2021/09/17 01:29:34;;;;;;;2.55;1.13;;;15.40;69.90;;;;;;4982796;28;20027;-78
2021/09/17 01:32:00;;;;;;;2.80;1.33;;;15.40;69.90;;;;;;4976405;28;20142;-79
2021/09/17 01:34:26;;;;;;;1.13;1.02;;;15.40;69.90;;;;;;4969443;28;20062;-78
2021/09/17 01:36:52;;;;;;;2.72;1.63;;;15.30;69.70;;;;;;4983448;28;20042;-78
2021/09/17 01:39:20;;;;;;;2.33;1.50;;;15.40;69.90;;;;;;4993956;28;20041;-79
2021/09/17 01:41:47;;;;;;;1.80;1.30;;;15.40;70.00;;;;;;4986729;28;20053;-79
2021/09/17 01:44:14;;;;;;;2.63;1.85;;;15.40;70.00;;;;;;4977808;28;20145;-80
2021/09/17 01:46:40;;;;;;;1.88;1.20;;;15.40;70.00;;;;;;4989591;28;20050;-79
2021/09/17 01:49:07;;;;;;;3.80;2.70;;;15.40;70.00;;;;;;5001028;28;20064;-79
2021/09/17 01:51:33;;;;;;;2.17;1.15;;;15.40;70.00;;;;;;5010250;28;20046;-78
2021/09/17 01:54:05;;;;;;;2.85;1.52;;;15.40;70.00;;;;;;4992842;28;20049;-80
2021/09/17 01:56:34;;;;;;;2.63;1.55;;;15.30;69.80;;;;;;4992623;28;20030;-80
2021/09/17 01:59:01;;;;;;;2.25;1.23;;;15.40;70.00;;;;;;4992447;28;20102;-80
2021/09/17 02:01:27;;;;;;;3.50;1.63;;;15.40;70.00;;;;;;4993121;28;20026;-79
2021/09/17 02:03:54;;;;;;;2.15;1.33;;;15.30;69.80;;;;;;4996904;28;20412;-77
2021/09/17 02:06:25;;;;;;;3.10;1.50;;;15.30;69.80;;;;;;4996262;28;20034;-79
2021/09/17 02:08:51;;;;;;;1.60;1.30;;;15.30;69.90;;;;;;5012758;28;20033;-80
2021/09/17 02:11:18;;;;;;;2.13;1.38;;;15.30;69.90;;;;;;4996317;28;20480;-79
2021/09/17 02:13:45;;;;;;;2.30;1.42;;;15.30;69.90;;;;;;5013943;28;20462;-79
2021/09/17 02:16:11;;;;;;;1.75;1.10;;;15.30;69.90;;;;;;4987673;28;20034;-80
2021/09/17 02:18:37;;;;;;;1.40;1.20;;;15.20;69.80;;;;;;5013961;28;20100;-79
2021/09/17 02:21:03;;;;;;;3.67;1.10;;;15.20;69.80;;;;;;4996096;28;20025;-78
2021/09/17 02:23:30;;;;;;;2.17;1.35;;;15.20;69.90;;;;;;4980767;28;20276;-79
2021/09/17 02:25:55;;;;;;;2.40;1.52;;;15.20;69.90;;;;;;4996678;28;20475;-79
2021/09/17 02:28:22;;;;;;;1.52;1.40;;;15.10;69.80;;;;;;4996545;28;20073;-80
2021/09/17 02:30:48;;;;;;;2.17;1.35;;;15.10;69.90;;;;;;4996456;28;20053;-79
2021/09/17 02:33:14;;;;;;;3.78;1.88;;;15.10;69.90;;;;;;4996401;28;20060;-81
2021/09/17 02:35:41;;;;;;;2.25;1.38;;;15.10;70.00;;;;;;4996431;28;20041;-79
2021/09/17 02:38:08;;;;;;;3.15;1.40;;;15.10;70.00;;;;;;4979946;28;20381;-78
2021/09/17 02:40:34;;;;;;;1.83;1.27;;;15.00;69.90;;;;;;4979625;28;20034;-77
2021/09/17 02:43:00;;;;;;;1.50;1.23;;;15.10;70.10;;;;;;5013345;28;20091;-78
2021/09/17 02:45:26;;;;;;;1.55;1.45;;;15.00;70.00;;;;;;5013100;28;20512;-78
2021/09/17 02:47:53;;;;;;;1.80;1.10;;;15.00;70.00;;;;;;4989942;28;20049;-78
2021/09/17 02:50:19;;;;;;;2.35;1.58;;;15.00;70.10;;;;;;4995798;28;20123;-79
2021/09/17 02:52:45;;;;;;;1.38;1.20;;;15.00;70.10;;;;;;5013691;28;20049;-78
2021/09/17 02:55:11;;;;;;;2.88;1.23;;;15.00;70.10;;;;;;4995833;28;20057;-79
2021/09/17 02:57:38;;;;;;;1.88;1.35;;;14.90;70.00;;;;;;4995796;28;20041;-79
2021/09/17 03:00:07;;;;;;;2.22;1.40;;;14.90;70.10;;;;;;4995757;28;20497;-78
2021/09/17 03:02:33;;;;;;;2.15;1.95;;;14.90;70.10;;;;;;4995445;28;20034;-79
2021/09/17 03:04:59;;;;;;;1.30;1.20;;;14.90;70.10;;;;;;4995218;28;20129;-78
2021/09/17 03:07:26;;;;;;;2.00;1.13;;;14.90;70.20;;;;;;5012929;28;20492;-78
2021/09/17 03:09:52;;;;;;;2.92;1.27;;;14.80;70.00;;;;;;5013402;28;20046;-79
2021/09/17 03:12:19;;;;;;;2.00;1.27;;;14.80;70.10;;;;;;4995495;28;20505;-79
2021/09/17 03:14:45;;;;;;;1.70;1.40;;;14.80;70.10;;;;;;4978209;28;20057;-79
2021/09/17 03:17:11;;;;;;;2.25;1.15;;;14.80;70.10;;;;;;4970162;28;20124;-78
2021/09/17 03:19:38;;;;;;;1.35;1.23;;;14.80;70.20;;;;;;4995517;28;20573;-77
2021/09/17 03:22:04;;;;;;;2.10;1.63;;;14.70;70.00;;;;;;5012462;28;20041;-77
2021/09/17 03:24:31;;;;;;;3.20;1.40;;;14.70;70.10;;;;;;4979081;28;20041;-77
2021/09/17 03:26:57;;;;;;;1.60;1.33;;;14.70;70.10;;;;;;4978811;28;20073;-80
2021/09/17 03:29:23;;;;;;;1.70;1.60;;;14.60;70.00;;;;;;4994591;28;20370;-78
2021/09/17 03:31:49;;;;;;;1.40;1.20;;;14.60;70.00;;;;;;4995231;28;20034;-79
2021/09/17 03:34:15;;;;;;;3.05;1.48;;;14.60;70.00;;;;;;5012630;28;20068;-77
2021/09/17 03:36:44;;;;;;;1.80;1.30;;;14.60;70.10;;;;;;4994892;28;20116;-77
2021/09/17 03:39:14;;;;;;;1.95;1.25;;;14.60;70.20;;;;;;4978539;28;20057;-78
2021/09/17 03:41:44;;;;;;;2.33;1.70;;;14.50;70.00;;;;;;4995015;28;20038;-79
2021/09/17 03:44:11;;;;;;;2.20;1.65;;;14.50;70.00;;;;;;4994627;28;20069;-78
2021/09/17 03:46:38;;;;;;;1.90;1.50;;;14.50;70.00;;;;;;5012161;28;20212;-79
2021/09/17 03:49:04;;;;;;;2.17;1.48;;;14.50;70.10;;;;;;4986132;28;20036;-77
2021/09/17 03:51:31;;;;;;;1.23;1.13;;;14.40;70.00;;;;;;5012317;28;20429;-78
2021/09/17 03:53:57;;;;;;;2.40;1.33;;;14.40;70.00;;;;;;4994660;28;20045;-78
2021/09/17 03:56:23;;;;;;;2.00;1.80;;;14.40;70.10;;;;;;4994711;28;20029;-79
2021/09/17 03:58:49;;;;;;;1.45;1.20;;;14.40;70.10;;;;;;4996695;28;20030;-79
2021/09/17 04:01:15;;;;;;;2.65;1.48;;;14.40;70.20;;;;;;4996302;28;20080;-78
2021/09/17 04:03:42;;;;;;;2.17;1.58;;;14.40;70.20;;;;;;4995710;28;20040;-78
2021/09/17 04:06:08;;;;;;;1.92;1.60;;;14.40;70.30;;;;;;5012401;28;20465;-79
2021/09/17 04:08:34;;;;;;;1.92;1.50;;;14.30;70.10;;;;;;4994706;28;20039;-76
2021/09/17 04:11:00;;;;;;;3.20;2.20;;;14.30;70.20;;;;;;4978376;28;20136;-78
2021/09/17 04:13:26;;;;;;;3.67;1.83;;;14.30;70.20;;;;;;4994601;28;20053;-78
2021/09/17 04:15:52;;;;;;;2.63;1.58;;;14.30;70.20;;;;;;4994850;28;20448;-78
2021/09/17 04:18:18;;;;;;;2.85;1.65;;;14.30;70.30;;;;;;4991578;28;20022;-78
2021/09/17 04:20:45;;;;;;;2.00;1.38;;;14.30;70.30;;;;;;4993876;28;20029;-77
2021/09/17 04:23:11;;;;;;;2.92;1.70;;;14.30;70.30;;;;;;5002006;28;20114;-78
2021/09/17 04:25:37;;;;;;;2.78;1.63;;;14.30;70.30;;;;;;5000006;28;20108;-78
2021/09/17 04:28:03;;;;;;;4.05;1.77;;;14.20;70.20;;;;;;4980173;28;20117;-78
2021/09/17 04:30:29;;;;;;;3.30;1.50;;;14.20;70.20;;;;;;4995311;28;20069;-79
2021/09/17 04:32:55;;;;;;;2.40;1.60;;;14.20;70.20;;;;;;4994537;28;20069;-79
2021/09/17 04:35:21;;;;;;;5.05;2.42;;;14.20;70.30;;;;;;4994242;28;20117;-78
2021/09/17 04:37:53;;;;;;;1.60;1.50;;;14.20;70.30;;;;;;4977493;28;20026;-79
2021/09/17 04:40:19;;;;;;;1.85;1.60;;;14.20;70.30;;;;;;5010450;28;20034;-79
2021/09/17 04:42:45;;;;;;;3.45;1.80;;;14.20;70.40;;;;;;4993868;28;20438;-79
2021/09/17 04:45:11;;;;;;;3.35;1.88;;;14.10;70.20;;;;;;5011409;28;20036;-78
2021/09/17 04:47:38;;;;;;;4.18;3.30;;;14.10;70.30;;;;;;4988193;28;20582;-79
2021/09/17 04:50:05;;;;;;;2.80;2.05;;;14.10;70.30;;;;;;4995318;28;20548;-77
2021/09/17 04:52:32;;;;;;;2.47;2.10;;;14.10;70.40;;;;;;4987156;28;20494;-80
2021/09/17 04:54:59;;;;;;;2.33;1.80;;;14.10;70.40;;;;;;5003982;28;20506;-78
2021/09/17 04:57:28;;;;;;;2.70;2.15;;;14.10;70.40;;;;;;4988563;28;20038;-78
2021/09/17 04:59:54;;;;;;;2.10;1.90;;;14.10;70.50;;;;;;4987676;28;20086;-79
2021/09/17 05:02:20;;;;;;;2.65;2.00;;;14.10;70.50;;;;;;4984967;28;20435;-77
2021/09/17 05:04:47;;;;;;;2.67;2.00;;;14.10;70.60;;;;;;4968863;28;20102;-78
2021/09/17 05:07:13;;;;;;;2.35;2.00;;;14.00;70.40;;;;;;4993939;28;20561;-79
2021/09/17 05:09:39;;;;;;;2.40;2.20;;;14.10;70.60;;;;;;4985511;28;20131;-79
2021/09/17 05:12:06;;;;;;;3.20;2.42;;;14.10;70.60;;;;;;4980253;28;20034;-79
2021/09/17 05:14:32;;;;;;;2.45;2.10;;;14.10;70.70;;;;;;4990696;28;20157;-80
2021/09/17 05:16:58;;;;;;;2.40;2.20;;;14.00;70.50;;;;;;4984773;28;20038;-79
2021/09/17 05:19:25;;;;;;;2.60;2.35;;;14.00;70.50;;;;;;4985261;28;20113;-79
2021/09/17 05:21:52;;;;;;;2.88;2.63;;;14.00;70.50;;;;;;4992670;28;20173;-80
2021/09/17 05:24:19;;;;;;;5.10;2.95;;;14.00;70.50;;;;;;4986838;28;20559;-80
2021/09/17 05:26:45;;;;;;;3.38;3.08;;;14.00;70.50;;;;;;4969762;28;20370;-80
2021/09/17 05:29:11;;;;;;;5.65;4.15;;;14.00;70.60;;;;;;4971561;28;20041;-81
2021/09/17 05:31:37;;;;;;;7.50;5.20;;;13.90;70.40;;;;;;4971527;28;20465;-80
2021/09/17 05:34:04;;;;;;;7.65;5.65;;;14.00;70.90;;;;;;4984051;28;20058;-79
2021/09/17 05:36:30;;;;;;;6.43;5.63;;;13.90;71.00;;;;;;4980818;28;20089;-84
2021/09/17 05:38:56;;;;;;;11.18;7.20;;;14.00;71.60;;;;;;4973761;28;20039;-79
2021/09/17 05:41:22;;;;;;;9.27;6.82;;;14.00;72.00;;;;;;4966245;28;20049;-78
2021/09/17 05:43:49;;;;;;;10.70;8.60;;;14.00;72.50;;;;;;4979583;28;20106;-77
2021/09/17 05:46:15;;;;;;;11.45;8.23;;;14.10;73.30;;;;;;4996862;28;20077;-86
2021/09/17 05:48:42;;;;;;;9.90;8.85;;;14.10;73.70;;;;;;4986291;28;20073;-81
2021/09/17 05:51:07;;;;;;;11.80;8.57;;;14.10;74.10;;;;;;4985814;28;20458;-80
2021/09/17 05:53:34;;;;;;;10.00;8.00;;;14.20;74.50;;;;;;4988332;28;20082;-80
2021/09/17 05:56:00;;;;;;;10.52;8.77;;;14.30;74.90;;;;;;4982588;28;20045;-81
2021/09/17 05:58:30;;;;;;;9.45;8.55;;;14.30;75.10;;;;;;4978600;28;20035;-80
2021/09/17 06:00:57;;;;;;;8.35;7.55;;;14.30;75.10;;;;;;4967319;28;20537;-79
2021/09/17 06:03:23;;;;;;;9.68;7.43;;;14.30;75.20;;;;;;4986931;28;20363;-79
2021/09/17 06:05:49;;;;;;;10.25;9.18;;;14.30;75.30;;;;;;4982024;28;20066;-78
2021/09/17 06:08:17;;;;;;;9.38;8.48;;;14.30;75.40;;;;;;4984394;28;20346;-79
2021/09/17 06:10:43;;;;;;;9.27;7.93;;;14.40;75.70;;;;;;4991430;28;20491;-79
2021/09/17 06:13:09;;;;;;;9.93;7.85;;;14.30;75.70;;;;;;4969755;28;20479;-80
2021/09/17 06:15:36;;;;;;;10.18;8.40;;;14.30;75.80;;;;;;4994913;28;20498;-81
2021/09/17 06:18:02;;;;;;;10.25;8.45;;;14.30;76.00;;;;;;4976395;28;20054;-82
2021/09/17 06:20:28;;;;;;;9.63;8.73;;;14.40;76.30;;;;;;5002123;28;20034;-81
2021/09/17 06:22:54;;;;;;;8.90;8.00;;;14.40;76.40;;;;;;4993295;28;20038;-82
2021/09/17 06:25:22;;;;;;;9.07;7.93;;;14.40;76.50;;;;;;4949995;28;20041;-81
2021/09/17 06:27:49;;;;;;;9.82;8.82;;;14.40;76.60;;;;;;4990060;28;20390;-84
2021/09/17 06:30:17;;;;;;;8.10;7.28;;;14.40;76.60;;;;;;4979080;28;20035;-82
2021/09/17 06:32:44;;;;;;;9.50;8.50;;;14.40;76.60;;;;;;4992560;28;20027;-83
2021/09/17 06:35:11;;;;;;;11.10;7.80;;;14.40;76.70;;;;;;4965146;28;20046;-81
2021/09/17 06:37:49;;;;;;;17.90;10.13;;;14.50;77.10;;;;;;4965362;28;20458;-80
2021/09/17 06:40:17;;;;;;;9.95;8.95;;;14.50;77.60;;;;;;4982284;28;20043;-81
2021/09/17 06:42:44;;;;;;;13.10;10.23;;;14.60;77.70;;;;;;4966147;28;20489;-80
2021/09/17 06:45:10;;;;;;;11.70;8.90;;;14.60;77.90;;;;;;4965637;28;20068;-79
2021/09/17 06:47:47;;;;;;;11.05;8.98;;;14.70;78.20;;;;;;4981214;28;20046;-80
2021/09/17 06:50:16;;;;;;;12.13;8.98;;;14.80;78.60;;;;;;4973404;28;20046;-81
2021/09/17 06:52:47;;;;;;;10.43;8.80;;;14.80;78.50;;;;;;4983516;28;20043;-81
2021/09/17 06:55:25;;;;;;;9.73;8.75;;;14.90;78.70;;;;;;4983738;28;20042;-79
2021/09/17 06:57:54;;;;;;;10.65;9.02;;;15.00;79.10;;;;;;4969158;28;20082;-80
2021/09/17 07:00:22;;;;;;;9.00;8.07;;;15.10;79.00;;;;;;4983339;28;20042;-81
2021/09/17 07:02:49;;;;;;;9.90;8.75;;;15.20;79.10;;;;;;4966292;28;20250;-80
2021/09/17 07:05:17;;;;;;;10.48;8.52;;;15.20;79.10;;;;;;4967972;28;20398;-81
2021/09/17 07:07:44;;;;;;;11.23;9.05;;;15.30;79.40;;;;;;4968855;28;20429;-80
2021/09/17 07:10:11;;;;;;;11.02;8.00;;;15.30;79.30;;;;;;4968256;28;20035;-81
2021/09/17 07:12:37;;;;;;;9.20;7.57;;;15.40;79.50;;;;;;4983349;28;20264;-82
2021/09/17 07:15:05;;;;;;;9.43;8.00;;;15.50;79.70;;;;;;4984604;28;20027;-82
2021/09/17 07:17:31;;;;;;;12.52;8.55;;;15.50;79.60;;;;;;4997704;28;20057;-82
2021/09/17 07:19:58;;;;;;;12.25;8.95;;;15.50;79.50;;;;;;5011913;28;20019;-81
2021/09/17 07:22:24;;;;;;;9.73;8.63;;;15.60;79.70;;;;;;5012130;28;20053;-81
2021/09/17 07:24:50;;;;;;;10.60;8.25;;;15.60;80.10;;;;;;5008803;28;20073;-80
2021/09/17 07:27:16;;;;;;;10.65;9.43;;;15.70;79.70;;;;;;4991824;28;20460;-81
2021/09/17 07:29:42;;;;;;;10.10;9.05;;;15.80;79.90;;;;;;4985117;28;20638;-81
2021/09/17 07:32:08;;;;;;;8.18;7.38;;;15.80;79.90;;;;;;4986035;28;20031;-81
2021/09/17 07:34:34;;;;;;;10.30;7.68;;;15.90;80.00;;;;;;4989103;28;20034;-81
2021/09/17 07:37:01;;;;;;;11.93;9.80;;;15.90;80.00;;;;;;5001548;28;20462;-80
2021/09/17 07:39:27;;;;;;;10.65;8.10;;;15.90;80.00;;;;;;4990270;28;20176;-80
2021/09/17 07:41:53;;;;;;;8.82;8.02;;;16.00;80.10;;;;;;4987906;28;20034;-81
2021/09/17 07:44:20;;;;;;;9.43;7.60;;;16.10;80.20;;;;;;4988818;28;20026;-81
2021/09/17 07:46:45;;;;;;;11.35;7.55;;;16.20;80.20;;;;;;4987008;28;20049;-81
2021/09/17 07:49:11;;;;;;;9.95;7.95;;;16.30;80.30;;;;;;4982568;28;20599;-80
2021/09/17 07:51:38;;;;;;;8.55;7.65;;;16.30;80.10;;;;;;4988270;28;20116;-80
2021/09/17 07:54:04;;;;;;;9.73;7.68;;;16.40;80.20;;;;;;4975728;28;20045;-79
2021/09/17 07:56:29;;;;;;;7.32;6.40;;;16.50;80.20;;;;;;4969016;28;20046;-79
2021/09/17 07:58:55;;;;;;;9.13;6.72;;;16.50;80.10;;;;;;4993943;28;20199;-80
2021/09/17 08:01:21;;;;;;;10.70;7.75;;;16.60;80.20;;;;;;4996632;28;20218;-80
2021/09/17 08:03:47;;;;;;;8.75;7.22;;;16.70;80.30;;;;;;4977136;28;20242;-80
2021/09/17 08:06:15;;;;;;;7.13;6.15;;;16.70;80.30;;;;;;4973675;28;20030;-80
2021/09/17 08:08:41;;;;;;;6.22;5.63;;;16.80;80.50;;;;;;4984775;28;20073;-82
2021/09/17 08:11:08;;;;;;;6.10;5.15;;;16.90;80.60;;;;;;4968412;28;20217;-79
2021/09/17 08:13:34;;;;;;;5.65;5.15;;;16.90;80.50;;;;;;4967862;28;20503;-80
2021/09/17 08:16:00;;;;;;;6.43;4.68;;;17.00;80.40;;;;;;4979186;28;20515;-81
2021/09/17 08:18:26;;;;;;;7.85;5.13;;;17.10;80.50;;;;;;4988483;28;20039;-82
2021/09/17 08:20:57;;;;;;;4.65;4.25;;;17.10;80.30;;;;;;4967527;28;20041;-83
2021/09/17 08:23:24;;;;;;;5.45;4.25;;;17.20;80.30;;;;;;4982955;28;20449;-81
2021/09/17 08:25:51;;;;;;;5.68;4.45;;;17.20;80.10;;;;;;4951050;28;20031;-80
2021/09/17 08:28:18;;;;;;;3.92;3.50;;;17.30;80.10;;;;;;4974262;28;20374;-81
2021/09/17 08:30:44;;;;;;;6.60;3.60;;;17.40;80.10;;;;;;4986031;28;20485;-82
2021/09/17 08:33:11;;;;;;;4.82;3.70;;;17.40;79.90;;;;;;4986092;28;20111;-81
2021/09/17 08:35:37;;;;;;;4.72;3.10;;;17.50;79.80;;;;;;4986018;28;20030;-82
2021/09/17 08:38:04;;;;;;;4.00;3.25;;;17.60;79.80;;;;;;4988226;28;20084;-82
2021/09/17 08:40:32;;;;;;;7.50;4.07;;;17.60;79.60;;;;;;4987127;28;20422;-80
2021/09/17 08:43:00;;;;;;;4.55;3.00;;;17.70;79.60;;;;;;4970039;28;20113;-80
2021/09/17 08:45:29;;;;;;;15.80;4.03;;;17.80;79.50;;;;;;4986336;28;20118;-82
2021/09/17 08:47:57;;;;;;;5.32;2.53;;;17.90;79.50;;;;;;4984032;28;20537;-81
2021/09/17 08:50:24;;;;;;;3.80;2.80;;;18.00;79.40;;;;;;4967121;28;20109;-81
2021/09/17 08:52:52;;;;;;;4.13;2.70;;;18.00;79.10;;;;;;4980536;28;20027;-82
2021/09/17 08:55:18;;;;;;;5.90;2.22;;;18.20;79.10;;;;;;4950437;28;20034;-82
2021/09/17 08:57:46;;;;;;;2.50;1.83;;;18.30;78.90;;;;;;4950229;28;20105;-81
2021/09/17 09:00:27;;;;;;;3.35;2.08;;;18.30;78.60;;;;;;4982617;28;20362;-80
2021/09/17 09:02:55;;;;;;;5.53;2.13;;;18.40;78.50;;;;;;4971770;28;20057;-81
2021/09/17 09:05:33;;;;;;;3.03;2.08;;;18.40;78.30;;;;;;4985832;28;20030;-81
2021/09/17 09:08:01;;;;;;;4.40;2.35;;;18.60;78.30;;;;;;4987366;28;20426;-81
2021/09/17 09:10:27;;;;;;;3.25;1.55;;;18.60;78.10;;;;;;4985500;28;20397;-80
2021/09/17 09:12:56;;;;;;;2.40;1.67;;;18.80;78.20;;;;;;4985223;28;20508;-82
2021/09/17 09:15:30;;;;;;;4.20;1.70;;;18.90;78.00;;;;;;4986856;28;20423;-80
2021/09/17 09:18:01;;;;;;;4.00;1.60;;;19.00;77.80;;;;;;4992498;28;20027;-81
2021/09/17 09:20:31;;;;;;;2.92;2.03;;;19.10;77.70;;;;;;4965901;28;20057;-81
2021/09/17 09:23:08;;;;;;;4.20;2.30;;;19.20;77.50;;;;;;4956105;28;20126;-80
2021/09/17 09:25:53;;;;;;;3.75;1.52;;;19.20;77.20;;;;;;5002720;28;20057;-80
2021/09/17 09:28:26;;;;;;;4.30;1.40;;;19.30;77.10;;;;;;5001270;28;20300;-79
2021/09/17 09:30:54;;;;;;;3.38;1.30;;;19.40;76.80;;;;;;4985486;28;20046;-81
2021/09/17 09:33:31;;;;;;;2.65;1.10;;;19.50;76.60;;;;;;4987258;28;20050;-81
2021/09/17 09:36:09;;;;;;;2.25;1.20;;;19.60;76.50;;;;;;4985602;28;20064;-81
2021/09/17 09:38:51;;;;;;;2.53;1.40;;;19.70;76.40;;;;;;4986096;28;20141;-81
2021/09/17 09:41:29;;;;;;;5.38;1.50;;;19.80;76.20;;;;;;4985573;28;20075;-81
2021/09/17 09:43:59;;;;;;;3.85;1.55;;;19.80;76.00;;;;;;4971876;28;20035;-81
2021/09/17 09:46:38;;;;;;;3.40;1.38;;;19.90;75.90;;;;;;4973020;28;20137;-81
2021/09/17 09:49:06;;;;;;;3.65;1.65;;;20.00;75.70;;;;;;4974724;28;20045;-81
2021/09/17 09:51:34;;;;;;;3.38;1.10;;;20.20;75.90;;;;;;4986913;28;20049;-81
2021/09/17 09:54:03;;;;;;;3.10;1.50;;;20.30;75.60;;;;;;5001119;28;20516;-80
2021/09/17 09:56:31;;;;;;;1.85;1.38;;;20.30;75.20;;;;;;4988823;28;20033;-81
2021/09/17 09:59:01;;;;;;;2.67;1.10;;;20.40;75.00;;;;;;4988956;28;20045;-81
2021/09/17 10:01:28;;;;;;;2.35;1.10;;;20.40;74.70;;;;;;4988703;28;20040;-81
2021/09/17 10:03:58;;;;;;;4.55;1.70;;;20.50;74.60;;;;;;4966254;28;20033;-81
2021/09/17 10:06:25;;;;;;;9.25;2.33;;;20.50;74.90;;;;;;5006242;28;20034;-82
2021/09/17 10:08:55;;;;;;;2.85;1.20;;;20.50;74.20;;;;;;5005584;28;20025;-82
2021/09/17 10:11:22;;;;;;;6.25;2.03;;;20.50;74.10;;;;;;4988503;28;20109;-84
2021/09/17 10:13:51;;;;;;;6.57;1.73;;;20.60;74.10;;;;;;4975975;28;20057;-81
2021/09/17 10:16:20;;;;;;;4.43;1.70;;;20.60;73.80;;;;;;4985653;28;20030;-83
2021/09/17 10:18:47;;;;;;;4.82;1.52;;;20.70;73.70;;;;;;5001441;28;20113;-84
2021/09/17 10:21:14;;;;;;;4.45;2.05;;;20.80;73.70;;;;;;5004651;28;20026;-82
2021/09/17 10:23:44;;;;;;;1.58;1.20;;;20.80;73.50;;;;;;4995209;28;20061;-82
2021/09/17 10:26:13;;;;;;;4.40;1.50;;;20.80;73.30;;;;;;4989250;28;20049;-81
2021/09/17 10:29:06;;;;;;;3.67;1.77;;;20.80;73.10;;;;;;4985755;28;20038;-82
2021/09/17 10:31:43;;;;;;;4.30;1.70;;;20.80;73.00;;;;;;4987687;28;20060;-82
2021/09/17 10:34:34;;;;;;;2.20;1.42;;;20.90;73.00;;;;;;4975938;28;20034;-82
2021/09/17 10:37:01;;;;;;;3.60;1.10;;;20.90;72.70;;;;;;4991789;28;20033;-81
2021/09/17 10:39:27;;;;;;;4.32;1.20;;;20.90;72.60;;;;;;4975551;28;20030;-80
2021/09/17 10:42:11;;;;;;;1.88;1.20;;;20.90;72.50;;;;;;4990657;28;20053;-82
2021/09/17 10:45:12;;;;;;;2.95;1.42;;;20.90;72.30;;;;;;5016499;28;20219;-82
2021/09/17 10:47:40;;;;;;;3.38;1.50;;;20.90;72.20;;;;;;5032754;28;20041;-82
2021/09/17 10:50:08;;;;;;;1.75;1.15;;;20.90;72.30;;;;;;4998973;28;20037;-81
2021/09/17 10:52:53;;;;;;;2.03;1.40;;;20.90;72.20;;;;;;5014999;28;20014;-82
2021/09/17 10:55:45;;;;;;;2.28;1.30;;;21.00;72.20;;;;;;5030137;28;20033;-81
2021/09/17 10:58:30;;;;;;;3.10;1.80;;;21.00;72.10;;;;;;5012447;28;20480;-78
2021/09/17 11:01:05;;;;;;;3.15;1.52;;;21.00;71.80;;;;;;4992297;28;20452;-79
2021/09/17 11:03:46;;;;;;;2.38;1.30;;;21.10;71.90;;;;;;4998643;28;20042;-79
2021/09/17 11:06:19;;;;;;;2.67;1.42;;;21.00;71.60;;;;;;4997939;28;20061;-80
2021/09/17 11:08:46;;;;;;;2.75;1.77;;;21.00;71.60;;;;;;4984749;28;20217;-79
2021/09/17 11:11:44;;;;;;;4.93;2.25;;;20.90;71.50;;;;;;4994275;28;20049;-79
2021/09/17 11:14:21;;;;;;;6.20;2.63;;;21.00;71.80;;;;;;4991551;28;20477;-79
2021/09/17 11:16:52;;;;;;;7.63;2.38;;;21.00;72.00;;;;;;4976228;28;20502;-79
2021/09/17 11:19:19;;;;;;;5.70;2.25;;;21.00;72.30;;;;;;4999172;28;20081;-80
2021/09/17 11:21:48;;;;;;;9.98;3.40;;;21.00;72.50;;;;;;4962372;28;20176;-80
2021/09/17 11:24:21;;;;;;;6.75;2.90;;;21.10;72.80;;;;;;5005741;28;20037;-80
2021/09/17 11:26:50;;;;;;;9.55;3.03;;;21.10;72.80;;;;;;4997444;28;20138;-80
2021/09/17 11:29:18;;;;;;;5.18;2.58;;;21.30;73.10;;;;;;5014503;28;20109;-80
2021/09/17 11:31:55;;;;;;;4.07;2.30;;;21.40;73.10;;;;;;5011296;28;20049;-79
2021/09/17 11:34:24;;;;;;;4.43;2.75;;;21.60;73.90;;;;;;4989473;28;20030;-80
2021/09/17 11:37:00;;;;;;;9.02;2.65;;;21.70;73.30;;;;;;4990269;28;20441;-80
2021/09/17 11:39:36;;;;;;;6.63;2.13;;;21.80;73.20;;;;;;4992782;28;20057;-79
2021/09/17 11:42:05;;;;;;;5.97;2.30;;;22.00;73.10;;;;;;4989050;28;20034;-79
2021/09/17 11:44:44;;;;;;;4.18;1.95;;;22.10;72.80;;;;;;4987207;28;20034;-79
2021/09/17 11:47:13;;;;;;;5.53;2.03;;;22.20;72.70;;;;;;4981654;28;20085;-80
2021/09/17 11:49:44;;;;;;;3.78;2.60;;;22.30;72.70;;;;;;4986313;28;20083;-80
2021/09/17 11:52:16;;;;;;;2.95;2.40;;;22.40;73.20;;;;;;4990597;28;20706;-80
2021/09/17 11:54:54;;;;;;;2.83;1.85;;;22.60;72.50;;;;;;4986636;28;20030;-80
2021/09/17 11:57:20;;;;;;;4.15;1.90;;;22.70;72.20;;;;;;4990924;28;20049;-80
2021/09/17 11:59:47;;;;;;;2.85;2.10;;;22.70;71.90;;;;;;4999798;28;20344;-80
2021/09/17 12:02:17;;;;;;;2.30;1.60;;;22.70;71.70;;;;;;5013025;28;20525;-79
2021/09/17 12:05:07;;;;;;;4.03;1.60;;;22.80;72.20;;;;;;5009039;28;20026;-80
2021/09/17 12:07:35;;;;;;;3.22;1.60;;;22.80;71.40;;;;;;5007504;28;20030;-80
2021/09/17 12:10:13;;;;;;;3.35;1.95;;;22.80;71.20;;;;;;4990124;28;20069;-80
2021/09/17 12:12:43;;;;;;;2.60;1.90;;;22.90;71.00;;;;;;4990175;28;20570;-81
2021/09/17 12:15:10;;;;;;;6.10;2.28;;;23.00;71.00;;;;;;4989001;28;20089;-79
2021/09/17 12:17:52;;;;;;;2.30;2.05;;;23.10;70.70;;;;;;4986787;28;20033;-79
2021/09/17 12:20:18;;;;;;;2.78;1.90;;;23.20;70.30;;;;;;4985260;28;20034;-81
2021/09/17 12:22:53;;;;;;;4.35;1.70;;;23.20;70.30;;;;;;5006035;28;20296;-80
2021/09/17 12:25:26;;;;;;;2.30;1.67;;;23.20;70.00;;;;;;4990555;28;20044;-79
2021/09/17 12:28:01;;;;;;;2.33;1.60;;;23.30;70.10;;;;;;4986950;28;20361;-80
2021/09/17 12:30:32;;;;;;;3.42;2.05;;;23.30;69.90;;;;;;4970346;28;20042;-80
2021/09/17 12:33:11;;;;;;;1.88;1.55;;;23.40;69.80;;;;;;4959421;28;20022;-80
2021/09/17 12:35:48;;;;;;;3.92;1.63;;;23.50;69.40;;;;;;4973748;28;20022;-80
2021/09/17 12:38:16;;;;;;;3.97;1.77;;;23.50;69.20;;;;;;5007122;28;20347;-81
2021/09/17 12:40:48;;;;;;;2.78;1.63;;;23.50;68.80;;;;;;4989820;28;20033;-80
2021/09/17 12:43:25;;;;;;;4.68;1.90;;;23.50;68.40;;;;;;5005758;28;20085;-80
2021/09/17 12:46:02;;;;;;;3.50;2.17;;;23.60;68.60;;;;;;4988864;28;20030;-80
2021/09/17 12:48:33;;;;;;;2.90;1.75;;;23.70;68.40;;;;;;4975049;28;20524;-80
2021/09/17 12:51:00;;;;;;;2.72;1.75;;;23.80;68.40;;;;;;4986707;28;20328;-79
2021/09/17 12:53:35;;;;;;;3.47;1.60;;;23.90;68.30;;;;;;4986892;28;20034;-80